Time;durP1;ratioP1;P1;durP2;ratioP2;P2;SDS_P1;SDS_P2;PMS_P1;PMS_P2;Temp;Humidity;BMP_temperature;BMP_pressure;BME280_temperature;BME280_humidity;BME280_pressure;Samples;Min_cycle;Max_cycle;Signal;HPM_P1;HPM_P2
2023/10/23 00:02:12;;;;;;;3.70;1.30;;;;;;;12.82;81.50;95605.48;107256;1272;25217;-82
2023/10/23 00:04:40;;;;;;;5.70;1.10;;;;;;;12.73;81.38;95600.96;107313;1272;22510;-82
2023/10/23 00:07:09;;;;;;;1.70;1.10;;;;;;;12.67;81.53;95597.95;107373;1272;22524;-82
2023/10/23 00:09:38;;;;;;;3.00;1.40;;;;;;;12.66;81.88;95598.32;107172;1272;22651;-82
2023/10/23 00:12:08;;;;;;;3.80;1.10;;;;;;;12.55;81.36;95600.73;107241;1272;23245;-82
2023/10/23 00:14:36;;;;;;;2.40;1.20;;;;;;;12.48;82.21;95597.20;107322;1272;24363;-83
2023/10/23 00:17:05;;;;;;;2.90;1.30;;;;;;;12.43;82.20;95590.83;107229;1272;25519;-82
2023/10/23 00:19:33;;;;;;;3.80;1.30;;;;;;;12.35;82.17;95596.66;107320;1272;24208;-82
2023/10/23 00:22:01;;;;;;;2.90;1.20;;;;;;;12.28;82.13;95598.94;107294;1272;22526;-82
2023/10/23 00:24:29;;;;;;;2.30;1.20;;;;;;;12.20;82.18;95601.98;107254;1272;22703;-81
2023/10/23 00:26:57;;;;;;;1.60;1.00;;;;;;;12.04;81.90;95603.42;107300;1272;23906;-81
2023/10/23 00:29:25;;;;;;;1.50;1.10;;;;;;;11.92;81.98;95604.42;107011;1272;24452;-82
2023/10/23 00:31:53;;;;;;;2.60;1.10;;;;;;;11.81;82.36;95612.39;106820;1272;22510;-82
2023/10/23 00:34:21;;;;;;;3.30;1.00;;;;;;;11.70;82.41;95616.35;107279;1272;22525;-81
2023/10/23 00:36:50;;;;;;;2.70;1.00;;;;;;;11.58;81.98;95612.92;107412;1272;24339;-82
2023/10/23 00:39:18;;;;;;;2.30;1.20;;;;;;;11.50;82.33;95612.92;107329;1272;22503;-82
2023/10/23 00:41:46;;;;;;;2.00;1.20;;;;;;;11.41;83.36;95608.70;107089;1272;22511;-82
2023/10/23 00:44:14;;;;;;;4.20;1.10;;;;;;;11.35;82.93;95606.73;107297;1272;22525;-82
2023/10/23 00:46:43;;;;;;;2.50;0.90;;;;;;;11.28;82.96;95606.52;107311;1272;24265;-82
2023/10/23 00:49:12;;;;;;;3.50;1.00;;;;;;;11.22;84.02;95606.64;107130;1272;22662;-82
2023/10/23 00:51:40;;;;;;;2.90;1.30;;;;;;;11.17;84.03;95606.58;107020;1272;22769;-82
2023/10/23 00:54:09;;;;;;;2.30;0.90;;;;;;;11.13;84.26;95610.52;107110;1272;22517;-82
2023/10/23 00:56:37;;;;;;;2.30;1.20;;;;;;;11.09;83.64;95612.55;107147;1272;23062;-82
2023/10/23 00:59:07;;;;;;;2.70;0.90;;;;;;;11.02;83.58;95611.45;107117;1272;24228;-82
2023/10/23 01:01:36;;;;;;;2.30;0.70;;;;;;;11.00;83.60;95612.02;106999;1272;25239;-81
2023/10/23 01:04:05;;;;;;;4.80;1.10;;;;;;;10.93;84.13;95608.27;107188;1272;23007;-81
2023/10/23 01:06:34;;;;;;;2.10;0.70;;;;;;;10.96;84.45;95612.46;107139;1272;22709;-81
2023/10/23 01:09:02;;;;;;;1.00;0.60;;;;;;;10.94;84.40;95612.66;107282;1272;24315;-81
2023/10/23 01:11:30;;;;;;;1.30;0.60;;;;;;;10.90;84.53;95614.51;107116;1272;22524;-81
2023/10/23 01:13:58;;;;;;;0.30;0.30;;;;;;;10.87;84.20;95615.09;106879;1272;24262;-82
2023/10/23 01:16:26;;;;;;;1.60;0.70;;;;;;;10.81;83.71;95614.50;106842;1272;22640;-81
2023/10/23 01:18:54;;;;;;;1.10;0.30;;;;;;;10.79;83.80;95618.59;106790;1272;22534;-81
2023/10/23 01:21:23;;;;;;;2.00;0.50;;;;;;;10.78;83.99;95619.33;106932;1272;22528;-81
2023/10/23 01:23:52;;;;;;;1.30;0.50;;;;;;;10.79;84.02;95619.80;107064;1272;25376;-81
2023/10/23 01:26:20;;;;;;;2.30;0.60;;;;;;;10.77;83.56;95620.73;106905;1272;23141;-81
2023/10/23 01:28:48;;;;;;;1.50;0.60;;;;;;;10.74;83.74;95624.67;107110;1272;22588;-81
2023/10/23 01:31:17;;;;;;;1.30;0.50;;;;;;;10.68;83.48;95622.31;107117;1272;24230;-81
2023/10/23 01:33:45;;;;;;;3.20;0.90;;;;;;;10.65;83.89;95629.94;106946;1272;25030;-81
2023/10/23 01:36:13;;;;;;;4.10;0.70;;;;;;;10.72;84.20;95626.63;106880;1272;22547;-81
2023/10/23 01:38:43;;;;;;;2.20;0.50;;;;;;;10.80;84.20;95626.48;107167;1260;22674;-82
2023/10/23 01:41:11;;;;;;;2.90;0.50;;;;;;;10.87;84.05;95631.64;107305;1272;22639;-81
2023/10/23 01:43:39;;;;;;;0.90;0.50;;;;;;;10.88;83.98;95632.84;106994;1272;22752;-81
2023/10/23 01:46:07;;;;;;;2.90;0.50;;;;;;;10.86;83.54;95632.38;106908;1272;25271;-81
2023/10/23 01:48:36;;;;;;;0.80;0.40;;;;;;;10.90;83.97;95636.33;107165;1272;22649;-81
2023/10/23 01:51:04;;;;;;;1.90;0.60;;;;;;;10.91;83.82;95635.95;106996;1272;25344;-81
2023/10/23 01:53:32;;;;;;;2.40;0.60;;;;;;;10.90;84.21;95637.39;107188;1272;24253;-81
2023/10/23 01:56:08;;;;;;;1.70;1.00;;;;;;;10.89;83.97;95635.84;107099;1272;25408;-82
2023/10/23 01:58:36;;;;;;;2.30;0.70;;;;;;;10.95;84.11;95642.04;106898;1272;22993;-81
2023/10/23 02:01:04;;;;;;;1.30;0.60;;;;;;;10.98;84.17;95643.91;107014;1264;24492;-81
2023/10/23 02:03:33;;;;;;;0.70;0.50;;;;;;;10.96;83.83;95642.38;106894;1273;22522;-81
2023/10/23 02:06:02;;;;;;;1.00;0.60;;;;;;;10.87;83.62;95639.02;107110;1273;24400;-81
2023/10/23 02:08:30;;;;;;;3.70;0.90;;;;;;;10.78;83.78;95647.98;107176;1273;22636;-81
2023/10/23 02:11:00;;;;;;;2.10;0.90;;;;;;;10.68;83.41;95644.65;106968;1270;22655;-81
2023/10/23 02:13:28;;;;;;;0.80;0.60;;;;;;;10.63;83.78;95640.53;107160;1273;22521;-81
2023/10/23 02:15:56;;;;;;;1.30;0.60;;;;;;;10.57;84.18;95644.69;106981;1273;23413;-81
2023/10/23 02:18:24;;;;;;;1.00;0.70;;;;;;;10.52;84.29;95645.30;106898;1273;22513;-81
2023/10/23 02:20:52;;;;;;;2.00;1.00;;;;;;;10.44;84.31;95645.42;107072;1273;24259;-81
2023/10/23 02:23:20;;;;;;;3.20;1.30;;;;;;;10.35;84.15;95646.47;106958;1273;22517;-81
2023/10/23 02:25:48;;;;;;;2.70;1.80;;;;;;;10.32;84.17;95648.45;106859;1273;22534;-81
2023/10/23 02:28:17;;;;;;;1.90;1.60;;;;;;;10.28;84.43;95654.48;107005;1273;25408;-81
2023/10/23 02:30:45;;;;;;;4.20;1.80;;;;;;;10.19;84.27;95658.83;106990;1273;25424;-80
2023/10/23 02:33:13;;;;;;;3.60;1.70;;;;;;;10.11;84.18;95658.06;106882;1273;22543;-81
2023/10/23 02:35:43;;;;;;;2.80;0.90;;;;;;;10.03;84.06;95665.58;106979;1273;22540;-80
2023/10/23 02:38:12;;;;;;;1.00;0.90;;;;;;;9.98;84.94;95661.27;107159;1273;25366;-80
2023/10/23 02:40:40;;;;;;;1.30;0.90;;;;;;;9.89;85.17;95661.05;107099;1273;25340;-80
2023/10/23 02:43:08;;;;;;;1.10;0.70;;;;;;;9.82;85.40;95663.78;107243;1273;25373;-81
2023/10/23 02:45:37;;;;;;;2.20;0.80;;;;;;;9.75;85.43;95663.52;107104;1273;24483;-81
2023/10/23 02:48:05;;;;;;;1.10;0.80;;;;;;;9.72;85.75;95661.46;106991;1273;22527;-81
2023/10/23 02:50:33;;;;;;;0.70;0.60;;;;;;;9.68;85.29;95662.20;107115;1273;25264;-81
2023/10/23 02:53:01;;;;;;;1.80;0.90;;;;;;;9.60;85.47;95661.29;107043;1273;22524;-81
2023/10/23 02:55:29;;;;;;;3.00;1.00;;;;;;;9.51;86.59;95666.67;106953;1273;25363;-81
2023/10/23 02:57:59;;;;;;;1.20;1.00;;;;;;;9.49;86.05;95669.34;106992;1273;22522;-80
2023/10/23 03:00:28;;;;;;;4.90;1.30;;;;;;;9.51;86.69;95666.33;107037;1272;22641;-81
2023/10/23 03:02:57;;;;;;;2.80;1.00;;;;;;;9.55;86.73;95665.57;107460;1272;24345;-80
2023/10/23 03:05:25;;;;;;;1.90;0.60;;;;;;;9.53;86.22;95668.39;107290;1272;22771;-80
2023/10/23 03:07:54;;;;;;;0.90;0.60;;;;;;;9.53;86.07;95664.73;107410;1272;22543;-81
2023/10/23 03:10:22;;;;;;;1.50;0.80;;;;;;;9.52;86.20;95668.59;107374;1272;22834;-81
2023/10/23 03:12:50;;;;;;;1.30;0.90;;;;;;;9.57;86.68;95673.45;107157;1272;24356;-81
2023/10/23 03:23:06;;;;;;;4.00;2.00;;;;;;;9.74;85.68;95674.44;103570;1307;545214;-79
2023/10/23 03:25:34;;;;;;;1.40;1.00;;;;;;;9.76;85.84;95676.86;105969;1289;22806;-78
2023/10/23 03:28:02;;;;;;;0.80;0.60;;;;;;;9.86;85.90;95677.95;105930;1289;24369;-78
2023/10/23 03:30:30;;;;;;;0.60;0.60;;;;;;;9.86;85.12;95678.66;105901;1278;24414;-78
2023/10/23 03:32:59;;;;;;;3.10;0.50;;;;;;;9.78;84.40;95683.16;105840;1289;25398;-78
2023/10/23 03:35:27;;;;;;;1.20;0.70;;;;;;;9.68;84.38;95683.12;105788;1289;22807;-81
2023/10/23 03:37:55;;;;;;;0.70;0.50;;;;;;;9.62;84.32;95680.77;105781;1286;245082;-81
2023/10/23 03:40:23;;;;;;;2.90;0.60;;;;;;;9.57;84.98;95684.33;105909;1286;22542;-81
2023/10/23 03:42:52;;;;;;;1.50;0.60;;;;;;;9.60;84.92;95686.76;105875;1286;25464;-81
2023/10/23 03:45:20;;;;;;;1.90;0.90;;;;;;;9.51;84.42;95682.48;106025;1286;25364;-81
2023/10/23 03:47:48;;;;;;;0.70;0.50;;;;;;;9.43;84.47;95682.21;106348;1280;25451;-81
2023/10/23 03:50:16;;;;;;;0.70;0.60;;;;;;;9.39;85.04;95686.51;106234;1280;22767;-81
2023/10/23 03:52:44;;;;;;;0.90;0.60;;;;;;;9.32;84.50;95688.33;106398;1279;25378;-81
2023/10/23 03:55:12;;;;;;;1.10;0.50;;;;;;;9.21;84.18;95689.52;106418;1279;22534;-81
2023/10/23 03:57:40;;;;;;;1.80;1.10;;;;;;;9.14;84.35;95687.66;106344;1279;22549;-81
2023/10/23 04:00:10;;;;;;;1.70;0.90;;;;;;;9.02;84.43;95687.98;106367;1280;22553;-81
2023/10/23 04:02:41;;;;;;;0.60;0.60;;;;;;;8.90;85.07;95692.16;106324;1279;24246;-81
2023/10/23 04:05:10;;;;;;;2.90;0.90;;;;;;;8.86;84.84;95695.86;106322;1280;22658;-80
2023/10/23 04:07:38;;;;;;;1.90;0.70;;;;;;;8.83;85.30;95695.90;106576;1280;22744;-81
2023/10/23 04:10:08;;;;;;;1.30;0.80;;;;;;;8.78;85.39;95696.30;106363;1279;25344;-80
2023/10/23 04:12:36;;;;;;;1.20;0.80;;;;;;;8.68;85.50;95691.13;106370;1280;22617;-80
2023/10/23 04:15:05;;;;;;;2.10;1.00;;;;;;;8.60;85.42;95687.02;106390;1280;22536;-81
2023/10/23 04:17:33;;;;;;;2.50;1.20;;;;;;;8.57;86.23;95687.91;106339;1280;22524;-80
2023/10/23 04:20:01;;;;;;;2.40;1.00;;;;;;;8.52;86.40;95688.66;106323;1279;24407;-80
2023/10/23 04:22:29;;;;;;;3.70;1.30;;;;;;;8.46;86.86;95686.60;106325;1279;22529;-80
2023/10/23 04:24:57;;;;;;;3.20;1.10;;;;;;;8.41;86.66;95689.80;106366;1279;22530;-80
2023/10/23 04:27:25;;;;;;;1.90;1.30;;;;;;;8.33;86.38;95689.66;106401;1279;22803;-80
2023/10/23 04:29:54;;;;;;;3.60;1.90;;;;;;;8.24;86.19;95688.86;106198;1279;22671;-80
2023/10/23 04:32:22;;;;;;;5.40;2.00;;;;;;;8.19;86.16;95691.35;106312;1280;25314;-81
2023/10/23 04:34:50;;;;;;;4.80;2.40;;;;;;;8.13;86.18;95689.30;106415;1280;22556;-81
2023/10/23 04:37:18;;;;;;;4.10;2.10;;;;;;;8.09;86.05;95692.48;106284;1279;22859;-83
2023/10/23 04:39:46;;;;;;;2.20;1.30;;;;;;;8.06;86.31;95695.48;106631;1275;25398;-80
2023/10/23 04:42:14;;;;;;;1.50;1.00;;;;;;;8.05;86.68;95692.86;106630;1276;23108;-80
2023/10/23 04:44:43;;;;;;;3.50;1.60;;;;;;;8.04;87.01;95693.04;106594;1276;24382;-80
2023/10/23 04:47:11;;;;;;;2.90;1.50;;;;;;;8.12;87.02;95697.02;106586;1272;22523;-80
2023/10/23 04:49:39;;;;;;;3.00;1.10;;;;;;;8.15;86.45;95697.86;106603;1275;22605;-80
2023/10/23 04:52:07;;;;;;;4.60;1.50;;;;;;;8.13;86.12;95697.52;106622;1276;22661;-80
2023/10/23 04:54:35;;;;;;;7.30;1.70;;;;;;;8.15;86.38;95700.67;106611;1275;24257;-80
2023/10/23 04:57:04;;;;;;;3.00;1.60;;;;;;;8.21;86.44;95705.36;106656;1275;22524;-80
2023/10/23 04:59:35;;;;;;;4.20;1.40;;;;;;;8.24;86.60;95707.79;106588;1276;24284;-80
2023/10/23 05:02:04;;;;;;;2.40;1.40;;;;;;;8.23;85.99;95707.61;106453;1276;23250;-81
2023/10/23 05:04:32;;;;;;;2.90;1.50;;;;;;;8.17;85.97;95707.49;106618;1275;24377;-80
2023/10/23 05:07:00;;;;;;;3.00;1.50;;;;;;;8.12;85.95;95710.15;106561;1275;23765;-80
2023/10/23 05:09:30;;;;;;;3.90;1.70;;;;;;;8.14;86.20;95713.64;106691;1275;22537;-80
2023/10/23 05:11:58;;;;;;;3.00;1.70;;;;;;;8.20;86.33;95714.83;106733;1275;22763;-80
2023/10/23 05:14:26;;;;;;;4.80;2.00;;;;;;;8.18;85.94;95714.68;106608;1275;27029;-80
2023/10/23 05:16:54;;;;;;;8.70;1.90;;;;;;;8.19;86.17;95716.23;106721;1275;25311;-81
2023/10/23 05:19:23;;;;;;;3.90;1.70;;;;;;;8.20;85.82;95722.36;106616;1257;24225;-81
2023/10/23 05:21:51;;;;;;;5.90;1.90;;;;;;;8.16;85.78;95727.65;106609;1275;25347;-80
2023/10/23 05:24:20;;;;;;;3.90;2.50;;;;;;;8.14;86.19;95734.67;106732;1275;24379;-80
2023/10/23 05:26:48;;;;;;;5.40;1.70;;;;;;;8.13;85.57;95742.21;106682;1275;24224;-81
2023/10/23 05:29:16;;;;;;;4.00;1.70;;;;;;;8.09;86.01;95748.36;106624;1275;25465;-81
2023/10/23 05:31:44;;;;;;;2.80;1.50;;;;;;;8.06;86.40;95753.82;106705;1275;22560;-80
2023/10/23 05:34:12;;;;;;;6.30;1.90;;;;;;;8.08;86.77;95760.29;106614;1275;23917;-80
2023/10/23 05:36:40;;;;;;;3.60;1.80;;;;;;;8.08;86.35;95766.77;106573;1275;25369;-80
2023/10/23 05:39:09;;;;;;;2.60;1.60;;;;;;;8.04;86.32;95768.02;106763;1275;22520;-80
2023/10/23 05:41:37;;;;;;;6.70;3.60;;;;;;;8.00;86.91;95778.71;106627;1275;22608;-80
2023/10/23 05:44:06;;;;;;;9.20;3.40;;;;;;;8.02;87.29;95776.45;106641;1275;22527;-80
2023/10/23 05:46:34;;;;;;;22.90;3.60;;;;;;;7.99;87.36;95781.36;106706;1275;23885;-81
2023/10/23 05:49:02;;;;;;;8.30;3.90;;;;;;;7.93;88.21;95780.17;106623;1275;24453;-80
2023/10/23 05:51:30;;;;;;;8.70;4.50;;;;;;;7.96;88.89;95783.31;106648;1275;22534;-80
2023/10/23 05:53:58;;;;;;;8.50;4.50;;;;;;;8.04;89.15;95791.14;106646;1275;24339;-80
2023/10/23 05:56:26;;;;;;;8.80;3.50;;;;;;;8.12;89.00;95791.10;106865;1275;22561;-81
2023/10/23 05:58:54;;;;;;;6.50;3.20;;;;;;;8.19;88.68;95796.31;106853;1275;22534;-80
2023/10/23 06:01:22;;;;;;;6.00;3.10;;;;;;;8.27;88.34;95799.77;106671;1275;22931;-81
2023/10/23 06:03:52;;;;;;;7.80;4.00;;;;;;;8.31;87.72;95802.20;106702;1275;23312;-78
2023/10/23 06:06:21;;;;;;;7.60;3.60;;;;;;;8.33;87.29;95806.39;106789;1275;22535;-79
2023/10/23 06:08:50;;;;;;;6.60;3.70;;;;;;;8.37;87.23;95806.54;106758;1275;25349;-78
2023/10/23 06:11:18;;;;;;;7.00;3.40;;;;;;;8.43;87.15;95807.77;106768;1275;22743;-78
2023/10/23 06:13:46;;;;;;;5.90;3.30;;;;;;;8.51;87.32;95808.95;106702;1275;22533;-79
2023/10/23 06:16:14;;;;;;;6.10;3.70;;;;;;;8.60;87.50;95810.98;106855;1275;22521;-83
2023/10/23 06:18:42;;;;;;;5.00;4.20;;;;;;;8.71;87.38;95813.86;106793;1275;24395;-81
2023/10/23 06:21:11;;;;;;;8.90;5.30;;;;;;;8.83;87.40;95809.38;106750;1275;22531;-83
2023/10/23 06:23:40;;;;;;;10.20;4.90;;;;;;;8.94;87.01;95813.52;106830;1275;22552;-83
2023/10/23 06:26:08;;;;;;;10.60;5.00;;;;;;;9.05;87.09;95805.50;106758;1275;24290;-83
2023/10/23 06:28:36;;;;;;;5.80;3.90;;;;;;;9.19;87.31;95803.61;106710;1275;25263;-84
2023/10/23 06:31:06;;;;;;;5.70;3.80;;;;;;;9.34;87.32;95806.98;106724;1275;22518;-82
2023/10/23 06:33:36;;;;;;;29.00;12.00;;;;;;;9.53;87.77;95810.45;106882;1274;25368;-82
2023/10/23 06:36:06;;;;;;;126.20;42.40;;;;;;;9.78;87.77;95810.02;106844;1275;22578;-85
2023/10/23 06:38:34;;;;;;;507.50;163.40;;;;;;;10.02;87.63;95809.35;107302;1275;25254;-83
2023/10/23 06:41:06;;;;;;;99.70;37.20;;;;;;;10.21;87.14;95810.16;106842;1270;22611;-82
2023/10/23 06:43:38;;;;;;;303.60;97.60;;;;;;;10.36;86.70;95809.11;106728;1275;23794;-83
2023/10/23 06:46:06;;;;;;;46.90;17.90;;;;;;;10.49;86.65;95810.48;107252;1275;22541;-83
2023/10/23 06:48:34;;;;;;;327.90;106.50;;;;;;;10.73;86.81;95806.95;106765;1275;24355;-85
2023/10/23 06:51:03;;;;;;;240.30;72.30;;;;;;;10.90;85.50;95814.42;106920;1275;23944;-84
2023/10/23 06:53:32;;;;;;;47.90;18.20;;;;;;;11.08;85.81;95812.36;108325;1271;23001;-85
2023/10/23 06:56:00;;;;;;;28.70;9.80;;;;;;;11.28;85.22;95806.21;107020;1275;22574;-87
2023/10/23 06:58:29;;;;;;;22.40;8.20;;;;;;;11.46;85.32;95806.06;106863;1275;22553;-86
2023/10/23 07:01:05;;;;;;;71.30;25.10;;;;;;;11.64;84.78;95806.08;106909;1275;22533;-86
2023/10/23 07:03:35;;;;;;;16.50;6.10;;;;;;;11.72;83.86;95808.04;106977;1268;23006;-85
2023/10/23 07:06:07;;;;;;;5.60;3.00;;;;;;;11.78;83.82;95810.73;106992;1276;22747;-87
2023/10/23 07:08:38;;;;;;;13.10;5.60;;;;;;;11.88;83.58;95812.66;106933;1267;24300;-86
2023/10/23 07:11:15;;;;;;;15.40;5.30;;;;;;;11.96;83.01;95811.65;106886;1276;22637;-86
2023/10/23 07:13:43;;;;;;;15.20;6.50;;;;;;;12.07;83.14;95810.34;107412;1276;25342;-88
2023/10/23 07:16:11;;;;;;;4.50;3.00;;;;;;;12.24;82.89;95812.80;107016;1272;22551;-84
2023/10/23 07:18:39;;;;;;;8.10;3.10;;;;;;;12.32;81.97;95804.86;106893;1271;23367;-85
2023/10/23 07:21:08;;;;;;;9.10;3.60;;;;;;;12.48;82.31;95804.53;106787;1276;22522;-84
2023/10/23 07:23:36;;;;;;;9.80;4.00;;;;;;;12.60;81.69;95803.71;106934;1270;22554;-86
2023/10/23 07:26:14;;;;;;;7.50;4.00;;;;;;;12.74;81.54;95804.45;107017;1264;22574;-85
2023/10/23 07:28:46;;;;;;;7.40;3.80;;;;;;;12.89;81.39;95798.27;107533;1272;24238;-86
2023/10/23 07:31:16;;;;;;;;;;;;;;;13.02;81.12;95795.63;107034;1272;22518;-86
2023/10/23 07:33:45;;;;;;;14.60;5.60;;;;;;;13.14;80.76;95795.89;107126;1276;22537;-87
2023/10/23 07:36:14;;;;;;;57.20;20.20;;;;;;;13.28;80.84;95801.02;106910;1276;22640;-84
2023/10/23 07:38:44;;;;;;;12.10;5.20;;;;;;;13.43;80.66;95799.58;106942;1276;22535;-87
2023/10/23 07:41:14;;;;;;;29.60;13.20;;;;;;;13.58;80.30;95793.86;106936;1269;24321;-85
2023/10/23 07:43:43;;;;;;;29.90;12.40;;;;;;;13.73;80.06;95790.27;107054;1260;23883;-88
2023/10/23 07:46:12;;;;;;;256.60;69.50;;;;;;;13.89;79.26;95789.13;106804;1276;24224;-86
2023/10/23 07:48:45;;;;;;;115.30;39.50;;;;;;;14.03;78.77;95784.64;106710;1276;25150;-83
2023/10/23 07:51:14;;;;;;;104.90;41.20;;;;;;;14.18;77.75;95785.63;106686;1276;22556;-82
2023/10/23 07:53:42;;;;;;;32.70;14.80;;;;;;;14.30;75.83;95789.34;106676;1276;22559;-82
2023/10/23 07:56:12;;;;;;;233.50;81.30;;;;;;;14.38;75.34;95785.73;106894;1276;25381;-81
2023/10/23 07:58:41;;;;;;;138.60;56.30;;;;;;;14.50;74.79;95786.80;107210;1276;25545;-80
2023/10/23 08:01:13;;;;;;;216.30;73.40;;;;;;;14.64;75.23;95789.20;106938;1276;25538;-80
2023/10/23 08:03:42;;;;;;;36.90;14.10;;;;;;;14.81;74.81;95787.25;106643;1276;22583;-82
2023/10/23 08:06:10;;;;;;;13.30;5.10;;;;;;;14.96;74.25;95786.58;106568;1276;22527;-83
2023/10/23 08:08:40;;;;;;;8.40;3.40;;;;;;;15.09;73.92;95785.64;106966;1276;24228;-82
2023/10/23 08:11:11;;;;;;;32.50;11.40;;;;;;;15.20;71.89;95790.25;106808;1276;24520;-81
2023/10/23 08:13:40;;;;;;;11.30;5.10;;;;;;;15.26;70.49;95784.02;106978;1276;23336;-81
2023/10/23 08:16:08;;;;;;;8.30;3.70;;;;;;;15.43;71.49;95786.44;106836;1273;22568;-82
2023/10/23 08:18:36;;;;;;;5.40;2.20;;;;;;;15.63;70.06;95786.10;106857;1276;24110;-82
2023/10/23 08:21:10;;;;;;;5.70;2.00;;;;;;;15.78;68.64;95787.22;106809;1276;22998;-84
2023/10/23 08:23:40;;;;;;;15.50;8.90;;;;;;;15.95;70.04;95794.89;106661;1276;24213;-81
2023/10/23 08:26:08;;;;;;;8.30;4.10;;;;;;;16.21;69.98;95793.45;108647;1276;24303;-80
2023/10/23 08:28:37;;;;;;;2.10;1.10;;;;;;;16.43;66.70;95792.80;106721;1276;25347;-81
2023/10/23 08:31:08;;;;;;;6.40;2.30;;;;;;;16.60;66.96;95794.23;106635;1276;24294;-80
2023/10/23 08:33:56;;;;;;;6.00;2.10;;;;;;;16.79;67.83;95797.45;106625;1276;22533;-79
2023/10/23 08:36:25;;;;;;;5.30;2.00;;;;;;;16.97;66.48;95789.45;106567;1276;22806;-82
2023/10/23 08:38:53;;;;;;;5.90;1.70;;;;;;;17.05;65.42;95787.31;106614;1276;24225;-81
2023/10/23 08:41:22;;;;;;;3.90;1.90;;;;;;;17.17;65.57;95789.35;106666;1276;23892;-79
2023/10/23 08:43:50;;;;;;;13.30;5.20;;;;;;;17.32;64.25;95791.20;106664;1276;22547;-81
2023/10/23 08:46:19;;;;;;;6.90;3.60;;;;;;;17.44;64.28;95787.14;106783;1267;22526;-82
2023/10/23 08:48:48;;;;;;;6.40;4.70;;;;;;;17.60;62.87;95784.65;106622;1276;22531;-80
2023/10/23 08:51:17;;;;;;;9.80;3.60;;;;;;;17.69;62.49;95780.72;106587;1276;22534;-81
2023/10/23 08:53:50;;;;;;;4.50;2.20;;;;;;;17.82;63.78;95778.43;106775;1276;22579;-80
2023/10/23 08:56:24;;;;;;;3.70;2.40;;;;;;;17.97;63.46;95768.32;106608;1276;22536;-81
2023/10/23 08:58:59;;;;;;;4.20;1.50;;;;;;;18.11;62.17;95767.32;106585;1276;22649;-81
2023/10/23 09:01:28;;;;;;;6.90;2.30;;;;;;;18.23;61.50;95762.86;106675;1276;24275;-81
2023/10/23 09:03:56;;;;;;;6.80;2.20;;;;;;;18.30;62.06;95765.02;106615;1276;22526;-82
2023/10/23 09:06:33;;;;;;;5.10;2.00;;;;;;;18.41;61.18;95764.52;106585;1276;22563;-82
2023/10/23 09:09:02;;;;;;;9.10;2.70;;;;;;;18.47;60.01;95763.50;106826;1276;22519;-83
2023/10/23 09:11:45;;;;;;;14.60;4.50;;;;;;;18.50;60.28;95763.37;106716;1276;22649;-82
2023/10/23 09:14:24;;;;;;;32.00;11.30;;;;;;;18.56;60.39;95759.89;106872;1276;25475;-84
2023/10/23 09:16:55;;;;;;;24.40;9.70;;;;;;;18.64;60.81;95759.52;106791;1276;22526;-81
2023/10/23 09:19:32;;;;;;;29.90;10.70;;;;;;;18.76;60.42;95751.83;106592;1276;22736;-82
2023/10/23 09:22:01;;;;;;;41.60;17.90;;;;;;;18.87;58.96;95749.35;106770;1276;22523;-83
2023/10/23 09:24:30;;;;;;;33.70;13.50;;;;;;;18.88;58.67;95747.69;106884;1276;22665;-83
2023/10/23 09:26:58;;;;;;;9.50;3.80;;;;;;;18.82;58.55;95747.10;106742;1276;25312;-84
2023/10/23 09:29:27;;;;;;;4.40;1.70;;;;;;;18.84;57.53;95744.49;106821;1276;22534;-82
2023/10/23 09:31:58;;;;;;;54.60;22.50;;;;;;;18.77;56.84;95746.59;106858;1276;22671;-85
2023/10/23 09:34:28;;;;;;;33.20;11.30;;;;;;;18.70;57.45;95748.90;106844;1276;24362;-81
2023/10/23 09:36:57;;;;;;;23.10;9.50;;;;;;;18.61;57.31;95745.58;106827;1276;22545;-85
2023/10/23 09:39:26;;;;;;;51.70;18.40;;;;;;;18.47;56.29;95751.95;106666;1276;25303;-83
2023/10/23 09:41:55;;;;;;;38.70;15.80;;;;;;;18.32;56.06;95745.52;106590;1276;22534;-82
2023/10/23 09:44:26;;;;;;;10.40;4.90;;;;;;;18.30;54.23;95746.70;106969;1276;22550;-82
2023/10/23 09:46:58;;;;;;;10.20;4.00;;;;;;;18.21;54.76;95742.28;106778;1276;25637;-81
2023/10/23 09:49:27;;;;;;;19.00;8.90;;;;;;;18.13;55.16;95740.13;106831;1276;22656;-82
2023/10/23 09:51:59;;;;;;;4.20;2.10;;;;;;;18.11;54.78;95738.85;106710;1276;24375;-83
2023/10/23 09:54:30;;;;;;;2.60;1.20;;;;;;;18.29;53.25;95741.20;106824;1276;22630;-81
2023/10/23 09:57:03;;;;;;;1.10;0.60;;;;;;;18.36;53.26;95743.54;106785;1276;24225;-79
2023/10/23 09:59:38;;;;;;;;;;;;;;;18.59;52.31;95739.27;106776;1276;23589;-77
2023/10/23 10:02:09;;;;;;;15.40;5.20;;;;;;;18.95;52.58;95734.52;107106;1276;22653;-80
2023/10/23 10:05:04;;;;;;;4.70;1.90;;;;;;;19.30;51.97;95727.91;106834;1276;22542;-79
2023/10/23 10:08:07;;;;;;;2.10;1.00;;;;;;;19.79;50.48;95733.64;106774;1276;24225;-80
2023/10/23 10:10:36;;;;;;;2.90;1.30;;;;;;;20.36;49.75;95727.19;106847;1276;25432;-79
2023/10/23 10:13:04;;;;;;;5.70;2.10;;;;;;;20.61;48.29;95719.24;106841;1276;24329;-81
2023/10/23 10:15:33;;;;;;;3.80;1.80;;;;;;;20.63;47.92;95724.15;106774;1276;25261;-79
2023/10/23 10:18:01;;;;;;;1.10;0.60;;;;;;;20.67;46.53;95720.17;106762;1276;22761;-79
2023/10/23 10:20:30;;;;;;;2.70;0.80;;;;;;;20.79;47.63;95717.69;106743;1276;24387;-79
2023/10/23 10:23:07;;;;;;;4.80;1.50;;;;;;;20.76;46.99;95721.39;106680;1276;24279;-80
2023/10/23 10:25:37;;;;;;;1.50;0.80;;;;;;;20.93;46.61;95716.19;106766;1276;24256;-81
2023/10/23 10:28:07;;;;;;;1.90;0.90;;;;;;;21.02;46.22;95713.90;106815;1276;22537;-80
2023/10/23 10:30:38;;;;;;;3.20;1.30;;;;;;;21.30;46.09;95709.20;106628;1276;22779;-81
2023/10/23 10:33:19;;;;;;;2.70;1.30;;;;;;;21.90;44.56;95703.98;106605;1276;25620;-80
2023/10/23 10:36:11;;;;;;;2.40;1.00;;;;;;;22.39;42.98;95702.02;106597;1276;24218;-81
2023/10/23 10:38:41;;;;;;;6.30;2.60;;;;;;;22.36;44.02;95702.56;106646;1276;22619;-79
2023/10/23 10:41:17;;;;;;;3.30;0.90;;;;;;;22.76;42.40;95697.50;106706;1276;22679;-80
2023/10/23 10:43:53;;;;;;;2.20;1.00;;;;;;;23.21;41.52;95690.40;106706;1276;24345;-79
2023/10/23 10:46:25;;;;;;;2.50;0.60;;;;;;;23.49;41.42;95693.55;106601;1276;22533;-79
2023/10/23 10:48:55;;;;;;;3.20;1.00;;;;;;;23.87;39.87;95686.14;106602;1276;24358;-80
2023/10/23 10:51:30;;;;;;;2.90;1.10;;;;;;;24.31;39.04;95688.98;106666;1276;25361;-79
2023/10/23 10:54:05;;;;;;;4.10;1.20;;;;;;;24.80;38.76;95678.71;106754;1265;22539;-79
2023/10/23 10:56:34;;;;;;;2.60;1.10;;;;;;;25.20;36.53;95679.79;106735;1276;24256;-80
2023/10/23 10:59:05;;;;;;;7.50;2.30;;;;;;;25.38;36.16;95682.00;106647;1265;25345;-81
2023/10/23 11:01:33;;;;;;;2.10;1.00;;;;;;;25.61;36.42;95677.92;106785;1276;22619;-81
2023/10/23 11:04:02;;;;;;;1.70;1.00;;;;;;;25.95;35.62;95673.69;106740;1276;22816;-80
2023/10/23 11:06:31;;;;;;;2.00;0.80;;;;;;;26.14;33.81;95673.61;106635;1276;25370;-79
2023/10/23 11:08:59;;;;;;;4.00;1.40;;;;;;;26.41;34.01;95677.06;106615;1276;22523;-80
2023/10/23 11:11:28;;;;;;;2.70;1.00;;;;;;;26.77;34.30;95673.33;106603;1276;25397;-80
2023/10/23 11:13:59;;;;;;;3.10;0.70;;;;;;;26.98;33.20;95672.13;106601;1276;25505;-81
2023/10/23 11:16:31;;;;;;;4.10;1.70;;;;;;;27.09;32.57;95672.27;106616;1269;24252;-81
2023/10/23 11:19:00;;;;;;;5.10;1.90;;;;;;;27.30;32.31;95677.08;106575;1276;22483;-81
2023/10/23 11:23:12;;;;;;;4.40;1.80;;;;;;;27.76;31.79;95670.94;103489;1313;546532;-80
2023/10/23 11:25:39;;;;;;;4.20;2.00;;;;;;;28.16;31.61;95672.98;105957;1289;22649;-79
2023/10/23 11:28:06;;;;;;;5.10;2.20;;;;;;;28.32;30.36;95671.96;106033;1289;22555;-80
2023/10/23 11:30:44;;;;;;;2.60;1.50;;;;;;;28.47;30.13;95664.48;105832;1289;22673;-81
2023/10/23 11:33:11;;;;;;;5.70;2.00;;;;;;;28.50;29.59;95665.29;105870;1289;23894;-81
2023/10/23 11:35:40;;;;;;;7.70;2.90;;;;;;;28.55;29.78;95667.40;105747;1286;215893;-81
2023/10/23 11:38:19;;;;;;;2.90;1.40;;;;;;;28.72;29.39;95664.40;106424;1279;22564;-80
2023/10/23 11:40:46;;;;;;;2.60;1.00;;;;;;;28.62;29.37;95664.23;106500;1279;22774;-80
2023/10/23 11:43:17;;;;;;;4.20;1.60;;;;;;;28.56;29.33;95659.82;106350;1279;26576;-80
2023/10/23 11:45:46;;;;;;;2.30;1.40;;;;;;;28.14;29.76;95668.05;106432;1279;22532;-80
2023/10/23 11:48:13;;;;;;;1.10;0.50;;;;;;;27.19;30.68;95667.87;106525;1279;22546;-80